Orbital elements of SL-8 R/B
| Launched | 6 July 1982 |
| Flight ended | – |
| Launch site | Plesetsk Missile and Space Complex, Russia |
| Owner | Commonwealth of Independent States (former USSR) |
| NORAD ID | 13354 |
| Date fetched |
Epoch osculation |
Inc. [°] |
Ecc. | RA asc node [hr] |
Arg Peri. [°] |
Mean anom [°] |
Mean motion [rev/day] |
Abs. mag |
| Date fetched |
Epoch osculation |
Inc. [°] |
Ecc. | RA asc node [hr] |
Arg Peri. [°] |
Mean anom [°] |
Mean motion [rev/day] |
Abs. mag |
| 2026 May 06 17:57 | 2026 May 05 09:53:41 | 82.9576 | 0.00523 | 5.8231 | 17.6349 | 342.6610 | 13.79275 | 5.243 |
| 2026 May 05 17:57 | 2026 May 05 09:53:41 | 82.9576 | 0.00523 | 5.8231 | 17.6349 | 342.6610 | 13.79275 | 5.243 |
| 2026 May 04 17:57 | 2026 Apr 30 14:59:14 | 82.9569 | 0.00526 | 6.0607 | 30.9140 | 342.6610 | 13.79275 | 5.243 |
| 2026 May 03 17:57 | 2026 Apr 30 14:59:14 | 82.9569 | 0.00526 | 6.0607 | 30.9140 | 342.6610 | 13.79275 | 5.243 |
| 2026 May 02 17:57 | 2026 Apr 30 14:59:14 | 82.9569 | 0.00526 | 6.0607 | 30.9140 | 342.6610 | 13.79275 | 5.243 |
| 2026 May 01 17:56 | 2026 Apr 30 14:59:14 | 82.9569 | 0.00526 | 6.0607 | 30.9140 | 342.6610 | 13.79275 | 5.243 |
| 2026 Apr 30 17:56 | 2026 Apr 30 14:59:14 | 82.9569 | 0.00526 | 6.0607 | 30.9140 | 342.6610 | 13.79275 | 5.243 |
| 2026 Apr 29 17:57 | 2026 Apr 24 11:00:00 | 82.9559 | 0.00529 | 6.3668 | 47.9260 | 342.6610 | 13.79275 | 5.243 |
| 2026 Apr 28 17:56 | 2026 Apr 24 11:00:00 | 82.9559 | 0.00529 | 6.3668 | 47.9260 | 342.6610 | 13.79275 | 5.243 |
| 2026 Apr 27 17:58 | 2026 Apr 24 11:00:00 | 82.9559 | 0.00529 | 6.3668 | 47.9260 | 342.6610 | 13.79275 | 5.243 |
| 2026 Apr 26 17:58 | 2026 Apr 24 11:00:00 | 82.9559 | 0.00529 | 6.3668 | 47.9260 | 342.6610 | 13.79275 | 5.243 |
| 2026 Apr 25 17:58 | 2026 Apr 24 11:00:00 | 82.9559 | 0.00529 | 6.3668 | 47.9260 | 342.6610 | 13.79275 | 5.243 |
| 2026 Apr 24 17:59 | 2026 Apr 24 11:00:00 | 82.9559 | 0.00529 | 6.3668 | 47.9260 | 342.6610 | 13.79275 | 5.243 |
| 2026 Apr 23 17:57 | 2026 Apr 19 02:09:50 | 82.9555 | 0.00531 | 6.6334 | 62.6667 | 342.6610 | 13.79275 | 5.243 |
| 2026 Apr 22 17:57 | 2026 Apr 19 02:09:50 | 82.9555 | 0.00531 | 6.6334 | 62.6667 | 342.6610 | 13.79275 | 5.243 |
| 2026 Apr 21 17:57 | 2026 Apr 19 02:09:50 | 82.9555 | 0.00531 | 6.6334 | 62.6667 | 342.6610 | 13.79275 | 5.243 |
| 2026 Apr 20 17:57 | 2026 Apr 19 02:09:50 | 82.9555 | 0.00531 | 6.6334 | 62.6667 | 342.6610 | 13.79275 | 5.243 |
| 2026 Apr 19 17:58 | 2026 Apr 19 02:09:50 | 82.9555 | 0.00531 | 6.6334 | 62.6667 | 342.6610 | 13.79275 | 5.243 |
| 2026 Apr 18 17:56 | 2026 Apr 12 23:55:02 | 82.9551 | 0.00533 | 6.9359 | 79.3673 | 342.6610 | 13.79275 | 5.243 |
| 2026 Apr 16 17:57 | 2026 Apr 12 23:55:02 | 82.9551 | 0.00533 | 6.9359 | 79.3673 | 342.6610 | 13.79275 | 5.243 |
| 2026 Apr 14 17:57 | 2026 Apr 12 23:55:02 | 82.9551 | 0.00533 | 6.9359 | 79.3673 | 342.6610 | 13.79275 | 5.243 |
| 2026 Apr 13 17:57 | 2026 Apr 12 23:55:02 | 82.9551 | 0.00533 | 6.9359 | 79.3673 | 342.6610 | 13.79275 | 5.243 |
| 2026 Apr 12 17:57 | 2026 Apr 08 10:13:55 | 82.9553 | 0.00533 | 7.1628 | 91.8705 | 342.6610 | 13.79275 | 5.243 |
| 2026 Apr 11 17:57 | 2026 Apr 08 10:13:55 | 82.9553 | 0.00533 | 7.1628 | 91.8705 | 342.6610 | 13.79275 | 5.243 |
| 2026 Apr 10 17:58 | 2026 Apr 08 10:13:55 | 82.9553 | 0.00533 | 7.1628 | 91.8705 | 342.6610 | 13.79275 | 5.243 |
| 2026 Apr 09 18:01 | 2026 Apr 08 10:13:55 | 82.9553 | 0.00533 | 7.1628 | 91.8705 | 342.6610 | 13.79275 | 5.243 |